Aviation Digital Data Service (ADDS)

Output produced by METARs form (1128 UTC 25 June 2019)
found at http://www.aviationweather.gov/metar/data/
 
TAF LECO 250800Z 2509/2609 VRB05KT 9999 FEW030 TX22/2513Z TN16/2603Z 
     PROB40 
     TEMPO 2513/2517 35010KT 
     TEMPO 2522/2602 3000 RA SHRA SCT030TCU 
     TEMPO 2522/2607 3000 BR BCFG 
     PROB30 
     TEMPO 2601/2606 0800 BCFG BKN010
       
TAF LEAB 251100Z 2512/2521 15010KT CAVOK 
     TEMPO 2512/2514 VRB05KT
       
TAF LERI 251100Z 2512/2521 11010KT CAVOK
       
TAF LEAL 251100Z 2512/2612 15010KT 9999 FEW020 TX28/2512Z TN20/2606Z 
     BECMG 2519/2521 VRB05KT 
     PROB30 
     TEMPO 2524/2606 23010KT 3000 BR BKN010
       
TAF LEAM 250800Z 2509/2609 21010KT CAVOK TX27/2513Z TN20/2605Z 
     BECMG 2518/2520 VRB02KT 
     PROB40 
     TEMPO 2522/2609 3000 BR BKN006
       
TAF LEGA 251100Z 2512/2521 17012KT CAVOK
       
TAF AMD LEAS 250911Z 2509/2609 VRB05KT 8000 FEW005 SCT015 TX20/2514Z TN16/2606Z 
     TEMPO 2509/2512 3000 BR BKN010 
     TEMPO 2509/2512 1500 BCFG BKN002 BKN005 BKN010 
     TEMPO 2512/2518 06010KT 
     TEMPO 2516/2606 3000 BR BCFG BKN005 
     TEMPO 2518/2606 1500 BCFG BKN003 
     PROB30 
     TEMPO 2519/2524 0350 FG VV001
       
TAF LEMD 251100Z 2512/2618 20010KT CAVOK TX38/2616Z TN20/2605Z 
     PROB40 
     TEMPO 2512/2518 20010G22KT 
     TEMPO 2518/2523 VRB04KT 
     PROB40 
     TEMPO 2523/2607 14010KT 
     TEMPO 2613/2618 20015G25KT
       
TAF LEBL 251100Z 2512/2612 07015KT 9999 FEW025 TX27/2512Z TN22/2606Z 
     TEMPO 2522/2606 04005KT
       
TAF LEBB 251100Z 2512/2612 VRB05KT 9999 FEW025 TX31/2612Z TN15/2605Z 
     TEMPO 2512/2518 02010KT 
     TEMPO 2512/2518 30010KT 
     TEMPO 2600/2606 3000 BR BCFG 
     PROB30 
     TEMPO 2604/2606 0800 BCFG BKN003
       
TAF LEBG 251100Z 2512/2521 20010KT CAVOK 
     BECMG 2519/2521 04012KT
       
TAF LEBA 251100Z 2512/2521 25008KT CAVOK
       
TAF LEVS 251100Z 2512/2521 20008KT CAVOK
       
TAF GCFV 250800Z 2509/2609 11010KT 9999 SCT025 TX27/2514Z TN21/2606Z 
     PROB30 
     TEMPO 2509/2510 02005KT 
     BECMG 2518/2520 32005KT
       
TAF LEGT 251100Z 2512/2521 20008KT CAVOK
       
TAF LEGE 251100Z 2512/2612 12010KT CAVOK TX35/2512Z TN19/2606Z 
     BECMG 2519/2521 34005KT 
     BECMG 2610/2612 13010KT
       
TAF GCLP 250800Z 2509/2609 06011KT 9999 SCT025 TX26/2514Z TN20/2606Z 
     PROB30 
     TEMPO 2511/2515 12007KT 
     BECMG 2518/2520 36012KT
       
TAF LEGR 250800Z 2509/2609 VRB02KT CAVOK TX38/2515Z TN17/2605Z 
     BECMG 2512/2515 29010KT 
     BECMG 2520/2522 VRB02KT
       
TAF GCHI 250800Z 2509/2609 35014KT 9999 SCT025 TX26/2514Z TN20/2606Z
       
TAF LEIB 250800Z 2509/2609 VRB04KT 9999 BKN018 TX28/2512Z TN21/2605Z 
     PROB40 
     TEMPO 2600/2605 3000 BR BKN005
       
TAF LEJR 251100Z 2512/2612 25010KT CAVOK TX30/2514Z TN17/2606Z 
     BECMG 2520/2522 19005KT 
     PROB30 
     TEMPO 2602/2608 3000 BR BKN010 
     BECMG 2610/2612 26010KT
       
TAF GCGM 250800Z 2509/2609 20007KT 9999 SCT025 TX26/2514Z TN19/2606Z
       
TAF GCLA 250800Z 2509/2609 03010KT 9999 SCT025 TX26/2514Z TN20/2606Z 
     BECMG 2519/2521 30005KT
       
TAF GCRR 250800Z 2509/2609 15010KT 9999 SCT025 TX28/2514Z TN20/2606Z 
     PROB30 
     TEMPO 2509/2511 VRB03KT 
     BECMG 2518/2520 31004KT
       
TAF LELN 251100Z 2512/2521 VRB05KT 9999 SCT020 
     PROB30 
     TEMPO 2512/2518 RA BKN014
       
TAF LEMG 251100Z 2512/2612 13010KT CAVOK TX28/2513Z TN20/2606Z 
     BECMG 2519/2521 VRB02KT 
     PROB40 
     TEMPO 2520/2606 3000 BR BKN005 
     BECMG 2607/2609 13010KT
       
TAF GEML 250800Z 2509/2609 05005KT 9999 FEW010 SCT018 TX28/2513Z TN20/2605Z 
     PROB40 
     TEMPO 2600/2609 3000 BR BKN010
       
TAF LEMH 250800Z 2509/2609 12015KT 9999 FEW015 TX29/2512Z TN20/2605Z 
     PROB40 
     TEMPO 2509/2514 12015G25KT 
     BECMG 2600/2602 05005KT
       
TAF LEMO 251100Z 2512/2521 VRB02KT CAVOK 
     BECMG 2512/2514 26010KT
       
TAF LEPP 250800Z 2509/2609 15010KT 9999 FEW030 TX36/2516Z TN22/2602Z 
     TEMPO 2518/2523 30015KT 
     BECMG 2522/2524 VRB05KT 
     BECMG 2606/2608 15012KT
       
TAF LERS 250800Z 2509/2609 10012KT 9999 FEW020 TX29/2512Z TN21/2605Z 
     BECMG 2521/2523 03005KT
       
TAF LERT 251100Z 2512/2521 24009KT CAVOK
       
TAF LESA 251100Z 2512/2612 25010KT 9999 SCT045 TX30/2515Z TN16/2605Z 
     BECMG 2518/2520 VRB04KT 
     BECMG 2608/2610 22012KT
       
TAF LESO 251100Z 2512/2612 VRB05KT CAVOK TX34/2612Z TN17/2605Z 
     BECMG 2518/2520 24010KT 
     PROB30 
     TEMPO 2520/2524 3000 BR 
     PROB40 
     TEMPO 2600/2606 3000 BR 
     BECMG 2604/2608 04010KT
       
TAF LEXJ 250800Z 2509/2609 VRB05KT 9999 FEW010 SCT025 TX22/2514Z TN16/2605Z 
     TEMPO 2509/2517 04010KT BKN012 
     PROB40 
     TEMPO 2600/2606 3000 BR
       
TAF LEST 251100Z 2512/2612 VRB05KT 9999 FEW030 TX23/2514Z TN15/2605Z 
     PROB40 
     TEMPO 2512/2516 24010KT 
     TEMPO 2516/2520 01010KT 
     TEMPO 2521/2604 3000 RA SHRA SCT025TCU 
     TEMPO 2522/2608 3000 BR
       
TAF LEZL 250800Z 2509/2609 21008KT CAVOK TX34/2515Z TN20/2607Z
       
TAF LEBZ 251100Z 2512/2612 VRB02KT CAVOK TX34/2515Z TN17/2606Z 
     BECMG 2512/2514 29010KT
       
TAF AMD GCXO 250933Z 2509/2609 31010KT 3000 BCFG OVC002 TX23/2514Z TN15/2606Z 
     PROB40 
     TEMPO 2509/2513 1000 DZ BCFG 
     BECMG 2513/2515 9999 NSW BKN006 
     PROB40 
     TEMPO 2518/2609 3000 BCFG BKN003
       
TAF GCTS 250800Z 2509/2609 18010KT 9999 BKN030 TX27/2514Z TN19/2606Z 
     PROB40 
     TEMPO 2509/2510 09005KT 
     BECMG 2519/2521 05007KT
       
TAF LETO 251100Z 2512/2612 20010KT CAVOK TX38/2516Z TN20/2605Z 
     TEMPO 2518/2523 VRB04KT 
     PROB40 
     TEMPO 2523/2607 14010KT
       
TAF LEVC 251100Z 2512/2612 08010KT 9999 SCT020 TX30/2512Z TN20/2606Z 
     BECMG 2520/2522 27003KT 
     PROB40 
     TEMPO 2522/2606 4500 BR BKN010 
     BECMG 2608/2610 08010KT
       
TAF LEVD 251100Z 2512/2612 VRB05KT CAVOK TX31/2515Z TN16/2605Z 
     PROB30 
     TEMPO 2520/2524 04010KT 
     BECMG 2608/2610 18012KT
       
TAF LEVX 251100Z 2512/2612 VRB05KT 9999 FEW025 TX23/2514Z TN15/2605Z 
     TEMPO 2512/2519 27010KT 
     PROB40 
     TEMPO 2522/2606 3000 RA SHRA SCT025TCU 
     PROB40 
     TEMPO 2600/2610 3000 BR BCFG 
     PROB30 
     TEMPO 2608/2612 3000 RA SHRA BKN010 SCT025TCU
       
TAF LEVT 251100Z 2512/2612 VRB05KT CAVOK TX35/2612Z TN17/2604Z 
     BECMG 2512/2514 01010KT 
     TEMPO 2514/2520 01015G25KT 
     BECMG 2520/2522 VRB05KT 
     PROB30 
     TEMPO 2520/2602 3000 BR BCFG 
     BECMG 2606/2608 14010KT 
     PROB30 
     TEMPO 2608/2612 14015G25KT
       
TAF LEZG 251100Z 2512/2612 11014KT CAVOK TX38/2515Z TN20/2606Z 
     PROB30 
     TEMPO 2512/2517 FEW100CB 
     TEMPO 2602/2606 14004KT 
     PROB40 
     TEMPO 2610/2612 11015G25KT